Time;durP1;ratioP1;P1;durP2;ratioP2;P2;SDS_P1;SDS_P2;PMS_P1;PMS_P2;Temp;Humidity;BMP_temperature;BMP_pressure;BME280_temperature;BME280_humidity;BME280_pressure;Samples;Min_cycle;Max_cycle;Signal;HPM_P1;HPM_P2
2022/09/01 00:00:49;;;;;;;;;;;;;;;16.79;70.90;102020.63;5012849;28;19912;-45
2022/09/01 00:03:18;;;;;;;;;;;;;;;16.79;68.53;102026.00;5014715;28;20410;-44
2022/09/01 00:05:45;;;;;;;;;;;;;;;16.79;71.15;102026.00;5013908;28;19913;-44
2022/09/01 00:08:10;;;;;;;;;;;;;;;16.81;72.62;102023.16;5016182;28;19925;-42
2022/09/01 00:10:36;;;;;;;;;;;;;;;16.82;69.09;102019.41;5015845;28;20390;-43
2022/09/01 00:13:03;;;;;;;;;;;;;;;16.83;70.58;102015.72;5015003;28;19912;-43
2022/09/01 00:15:28;;;;;;;;;;;;;;;16.81;71.51;102017.75;5012649;28;20324;-42
2022/09/01 00:17:53;;;;;;;;;;;;;;;16.81;69.95;102012.34;5013577;28;19913;-45
2022/09/01 00:20:18;;;;;;;;;;;;;;;16.81;70.74;102018.56;5014001;28;19921;-44
2022/09/01 00:22:44;;;;;;;;;;;;;;;16.81;70.64;102015.88;5015264;28;19959;-45
2022/09/01 00:25:09;;;;;;;;;;;;;;;16.78;75.07;102011.69;5012774;28;19913;-45
2022/09/01 00:27:35;;;;;;;;;;;;;;;16.76;71.44;102016.41;5032616;28;20142;-47
2022/09/01 00:30:00;;;;;;;;;;;;;;;16.74;71.32;102013.03;5031720;28;19912;-45
2022/09/01 00:32:26;;;;;;;;;;;;;;;16.70;74.94;102011.72;5062096;28;20331;-48
2022/09/01 00:34:51;;;;;;;;;;;;;;;16.67;75.81;102013.91;5032920;28;19909;-46
2022/09/01 00:37:16;;;;;;;;;;;;;;;16.62;76.44;102014.44;5032847;28;20011;-44
2022/09/01 00:39:41;;;;;;;;;;;;;;;16.60;76.54;102016.47;5032885;28;20290;-46
2022/09/01 00:42:07;;;;;;;;;;;;;;;16.59;75.83;102017.47;5032935;28;19917;-45
2022/09/01 00:44:33;;;;;;;;;;;;;;;16.55;75.95;102021.53;5031580;28;19948;-46
2022/09/01 00:46:58;;;;;;;;;;;;;;;16.54;76.63;102009.03;5034424;28;20109;-42
2022/09/01 00:49:41;;;;;;;;;;;;;;;16.55;73.05;102005.34;5037385;28;20421;-44
2022/09/01 00:52:14;;;;;;;;;;;;;;;16.57;73.83;102011.41;5037649;28;19909;-45
2022/09/01 00:54:42;;;;;;;;;;;;;;;16.58;77.34;102008.53;5036594;28;19912;-43
2022/09/01 00:57:08;;;;;;;;;;;;;;;16.55;80.35;102003.47;5036243;28;20286;-43
2022/09/01 00:59:35;;;;;;;;;;;;;;;16.50;78.58;102007.72;5036586;28;20135;-43
2022/09/01 01:02:00;;;;;;;;;;;;;;;16.43;80.34;102010.25;5037018;28;20431;-46
2022/09/01 01:04:25;;;;;;;;;;;;;;;16.40;77.51;102007.91;5036466;28;19938;-44
2022/09/01 01:07:01;;;;;;;;;;;;;;;16.39;77.67;102003.50;5036919;28;19970;-44
2022/09/01 01:09:27;;;;;;;;;;;;;;;16.38;76.16;102005.38;5033408;28;19917;-44
2022/09/01 01:11:53;;;;;;;;;;;;;;;16.37;76.85;102000.97;5036727;28;20701;-46
2022/09/01 01:14:18;;;;;;;;;;;;;;;16.36;77.45;102002.00;5037289;28;19913;-46
2022/09/01 01:16:45;;;;;;;;;;;;;;;16.35;76.87;101999.47;5036492;28;19916;-45
2022/09/01 01:23:00;;;;;;;;;;;;;;;16.38;74.42;102001.84;5035113;28;19912;-44
2022/09/01 01:24:46;;;;;;;;;;;;;;;16.35;76.90;102000.31;5027019;28;19920;-45
2022/09/01 01:27:12;;;;;;;;;;;;;;;16.36;75.88;101998.44;5032346;28;20263;-44
2022/09/01 01:29:38;;;;;;;;;;;;;;;16.34;77.55;102001.31;5036589;28;19913;-45
2022/09/01 01:32:12;;;;;;;;;;;;;;;16.30;80.63;102004.53;5035529;28;19947;-44
2022/09/01 01:34:42;;;;;;;;;;;;;;;16.26;77.72;101995.97;5023996;28;20009;-45
2022/09/01 01:37:09;;;;;;;;;;;;;;;16.28;79.14;101993.09;5036181;28;20385;-44
2022/09/01 01:39:35;;;;;;;;;;;;;;;16.24;78.51;102000.66;5036368;28;20545;-47
2022/09/01 01:42:00;;;;;;;;;;;;;;;16.21;77.45;102003.72;5036852;28;20003;-47
2022/09/01 01:44:29;;;;;;;;;;;;;;;16.19;79.30;102003.88;5036207;28;19958;-44
2022/09/01 01:46:54;;;;;;;;;;;;;;;16.15;76.99;102002.53;5035768;28;19912;-43
2022/09/01 01:49:21;;;;;;;;;;;;;;;16.17;79.10;102002.34;5036242;28;20003;-47
2022/09/01 01:51:47;;;;;;;;;;;;;;;16.16;76.76;102003.38;5035213;28;20008;-43
2022/09/01 01:54:14;;;;;;;;;;;;;;;16.12;81.10;101993.94;5035846;28;20395;-42
2022/09/01 01:56:40;;;;;;;;;;;;;;;16.08;77.66;102004.22;5036485;28;19913;-43
2022/09/01 01:59:06;;;;;;;;;;;;;;;16.08;76.71;102004.22;5033186;28;19923;-42
2022/09/01 02:01:31;;;;;;;;;;;;;;;16.06;82.29;102006.25;5023463;28;19912;-43
2022/09/01 02:03:57;;;;;;;;;;;;;;;16.01;79.62;102009.44;5038134;28;20411;-42
2022/09/01 02:06:24;;;;;;;;;;;;;;;16.00;80.29;102002.38;5036937;28;19924;-42
2022/09/01 02:08:51;;;;;;;;;;;;;;;16.01;77.19;102005.91;5037751;28;19999;-45
2022/09/01 02:11:17;;;;;;;;;;;;;;;15.99;77.28;102002.53;5038432;28;20131;-44
2022/09/01 02:13:43;;;;;;;;;;;;;;;15.98;80.30;102007.06;5026669;28;20033;-46
2022/09/01 02:16:11;;;;;;;;;;;;;;;15.96;78.75;102003.72;5034794;28;19917;-45
2022/09/01 02:18:39;;;;;;;;;;;;;;;15.97;77.42;102007.25;5036800;28;19912;-43
2022/09/01 02:21:10;;;;;;;;;;;;;;;15.94;77.72;102005.75;5038095;28;20406;-43
2022/09/01 02:23:36;;;;;;;;;;;;;;;15.92;81.68;102018.53;5022834;28;19917;-42
2022/09/01 02:26:01;;;;;;;;;;;;;;;15.87;80.07;102012.81;5024777;28;19909;-43
2022/09/01 02:28:29;;;;;;;;;;;;;;;15.88;79.23;102009.09;5030091;28;19935;-43
2022/09/01 02:30:56;;;;;;;;;;;;;;;15.86;79.98;102011.13;5034633;28;20364;-42
2022/09/01 02:33:22;;;;;;;;;;;;;;;15.82;79.37;102001.69;5034065;28;19920;-42
2022/09/01 02:35:48;;;;;;;;;;;;;;;15.80;79.71;102009.94;5037558;28;19916;-42
2022/09/01 02:38:13;;;;;;;;;;;;;;;15.77;79.92;101998.66;5037487;28;19912;-43
2022/09/01 02:40:44;;;;;;;;;;;;;;;15.76;79.38;101999.66;5037651;28;20260;-42
2022/09/01 02:43:10;;;;;;;;;;;;;;;15.78;80.94;102000.34;5068589;28;19923;-41
2022/09/01 02:45:36;;;;;;;;;;;;;;;15.77;80.84;102004.06;5037312;28;20076;-44
2022/09/01 02:48:01;;;;;;;;;;;;;;;15.75;80.57;102003.31;5027125;28;19908;-46
2022/09/01 02:50:28;;;;;;;;;;;;;;;15.70;80.35;102001.16;5038403;28;19913;-43
2022/09/01 02:52:53;;;;;;;;;;;;;;;15.67;79.34;101999.63;5028826;28;19917;-44
2022/09/01 02:55:22;;;;;;;;;;;;;;;15.64;79.94;101993.72;5016972;28;20137;-45
2022/09/01 02:57:51;;;;;;;;;;;;;;;15.59;79.48;101988.84;5024980;28;19924;-45
2022/09/01 03:00:21;;;;;;;;;;;;;;;15.56;79.65;101999.09;5035244;28;19924;-43
2022/09/01 03:02:48;;;;;;;;;;;;;;;15.51;81.55;101994.19;5025781;28;20301;-46
2022/09/01 03:05:15;;;;;;;;;;;;;;;15.48;80.51;101987.31;5038251;28;20380;-44
2022/09/01 03:07:41;;;;;;;;;;;;;;;15.45;80.39;101992.19;5035771;28;20019;-44
2022/09/01 03:10:08;;;;;;;;;;;;;;;15.40;82.74;101995.38;5027312;28;20054;-44
2022/09/01 03:12:33;;;;;;;;;;;;;;;15.36;83.63;101996.72;5025974;28;19909;-43
2022/09/01 03:14:58;;;;;;;;;;;;;;;15.33;82.17;101991.66;5023807;28;19995;-45
2022/09/01 03:17:24;;;;;;;;;;;;;;;15.29;83.24;101988.44;5037566;28;19935;-42
2022/09/01 03:19:50;;;;;;;;;;;;;;;15.26;81.70;101987.94;5037271;28;19955;-44
2022/09/01 03:22:15;;;;;;;;;;;;;;;15.22;82.83;101990.13;5034799;28;19995;-45
2022/09/01 03:24:41;;;;;;;;;;;;;;;15.20;83.25;101988.59;5023466;28;20885;-43
2022/09/01 03:27:06;;;;;;;;;;;;;;;15.16;83.19;101981.84;5026927;28;19909;-42
2022/09/01 03:29:32;;;;;;;;;;;;;;;15.11;84.48;101983.16;5031848;28;19919;-46
2022/09/01 03:31:57;;;;;;;;;;;;;;;15.10;83.63;101981.50;5022413;28;20122;-41
2022/09/01 03:34:22;;;;;;;;;;;;;;;15.10;84.54;101977.94;5030094;28;19992;-41
2022/09/01 03:36:51;;;;;;;;;;;;;;;15.11;82.86;101977.78;5035803;28;19921;-46
2022/09/01 03:39:17;;;;;;;;;;;;;;;15.11;83.12;101977.78;5036206;28;19908;-43
2022/09/01 03:41:43;;;;;;;;;;;;;;;15.09;83.91;101977.13;5036259;28;20219;-43
2022/09/01 03:44:10;;;;;;;;;;;;;;;15.07;84.98;101978.28;5028867;28;20274;-46
2022/09/01 03:46:36;;;;;;;;;;;;;;;15.05;83.18;101980.28;5034964;28;20374;-43
2022/09/01 03:49:04;;;;;;;;;;;;;;;15.03;83.63;101977.75;5036991;28;19909;-44
2022/09/01 03:51:29;;;;;;;;;;;;;;;15.03;84.49;101985.00;5029727;28;20236;-47
2022/09/01 03:53:56;;;;;;;;;;;;;;;15.03;82.57;101982.31;5034775;28;19912;-45
2022/09/01 03:56:23;;;;;;;;;;;;;;;15.01;83.62;101984.31;5035151;28;20055;-43
2022/09/01 03:58:48;;;;;;;;;;;;;;;14.99;85.36;101989.03;5036874;28;20413;-42
2022/09/01 04:01:14;;;;;;;;;;;;;;;14.97;83.73;101977.56;5028885;28;19983;-43
2022/09/01 04:03:40;;;;;;;;;;;;;;;14.93;82.96;101979.75;5030850;28;20268;-43
2022/09/01 04:06:07;;;;;;;;;;;;;;;14.93;83.25;101974.34;5036375;28;19939;-42
2022/09/01 04:08:32;;;;;;;;;;;;;;;14.92;83.85;101978.06;5035591;28;19928;-43
2022/09/01 04:11:01;;;;;;;;;;;;;;;14.89;82.71;101973.84;5034428;28;19920;-45
2022/09/01 04:13:29;;;;;;;;;;;;;;;14.88;82.61;101980.25;5027834;28;20000;-44
2022/09/01 04:15:55;;;;;;;;;;;;;;;14.84;83.12;101978.88;5025686;28;19933;-46
2022/09/01 04:18:20;;;;;;;;;;;;;;;14.82;82.99;101983.56;5022396;28;19912;-44
2022/09/01 04:20:47;;;;;;;;;;;;;;;14.79;83.63;101978.50;5024410;28;20287;-45
2022/09/01 04:23:20;;;;;;;;;;;;;;;14.76;83.02;101980.69;5035560;28;19924;-42
2022/09/01 04:25:49;;;;;;;;;;;;;;;14.72;83.01;101977.47;5030757;28;19909;-43
2022/09/01 04:28:21;;;;;;;;;;;;;;;14.68;82.88;101976.09;5027346;28;19913;-42
2022/09/01 04:30:48;;;;;;;;;;;;;;;14.64;84.04;101986.31;5033372;28;19936;-42
2022/09/01 04:33:16;;;;;;;;;;;;;;;14.63;83.13;101983.78;5037023;28;20261;-42
2022/09/01 04:35:41;;;;;;;;;;;;;;;14.60;84.21;101978.75;5024984;28;19917;-42
2022/09/01 04:38:10;;;;;;;;;;;;;;;14.59;83.35;101974.38;5033270;28;20302;-42
2022/09/01 04:40:38;;;;;;;;;;;;;;;14.55;84.06;101976.50;5031093;28;20491;-42
2022/09/01 04:43:04;;;;;;;;;;;;;;;14.52;85.57;101982.19;5036270;28;19915;-42
2022/09/01 04:45:30;;;;;;;;;;;;;;;14.49;84.24;101982.50;5035791;28;19909;-41
2022/09/01 04:47:55;;;;;;;;;;;;;;;14.47;84.31;101982.66;5020933;28;19924;-43
2022/09/01 04:50:22;;;;;;;;;;;;;;;14.45;85.24;101986.53;5035708;28;19912;-42
2022/09/01 04:52:47;;;;;;;;;;;;;;;14.41;84.22;101977.09;5034314;28;19913;-43
2022/09/01 04:55:16;;;;;;;;;;;;;;;14.42;83.47;101982.31;5034934;28;20332;-43
2022/09/01 04:57:46;;;;;;;;;;;;;;;14.38;84.91;101977.44;5035972;28;20314;-43
2022/09/01 05:00:21;;;;;;;;;;;;;;;14.36;84.38;101986.47;5035074;28;19916;-44
2022/09/01 05:02:46;;;;;;;;;;;;;;;14.35;85.79;101982.09;5036389;28;20445;-43
2022/09/01 05:05:11;;;;;;;;;;;;;;;14.36;85.99;101983.78;5032637;28;19953;-44
2022/09/01 05:07:36;;;;;;;;;;;;;;;14.38;84.07;101980.13;5033047;28;19917;-43
2022/09/01 05:10:02;;;;;;;;;;;;;;;14.40;84.53;101983.47;5036869;28;20050;-43
2022/09/01 05:12:28;;;;;;;;;;;;;;;14.45;85.87;101981.16;5037976;28;19900;-42
2022/09/01 05:14:54;;;;;;;;;;;;;;;14.45;85.94;101987.38;5029162;28;19963;-43
2022/09/01 05:17:20;;;;;;;;;;;;;;;14.47;83.87;101985.34;5032729;28;20003;-42
2022/09/01 05:19:47;;;;;;;;;;;;;;;14.50;85.15;101990.41;5032785;28;20024;-42
2022/09/01 05:22:13;;;;;;;;;;;;;;;14.48;85.91;101992.44;5035085;28;20252;-43
2022/09/01 05:24:38;;;;;;;;;;;;;;;14.48;85.26;101988.91;5034950;28;20014;-41
2022/09/01 05:27:04;;;;;;;;;;;;;;;14.46;85.91;101989.06;5035452;28;20016;-44
2022/09/01 05:29:30;;;;;;;;;;;;;;;14.47;85.37;101992.59;5035353;28;20322;-43
2022/09/01 05:31:57;;;;;;;;;;;;;;;14.48;84.59;101986.22;5034080;28;19935;-45
2022/09/01 05:34:26;;;;;;;;;;;;;;;14.49;85.31;101993.28;5040075;28;19974;-43
2022/09/01 05:36:53;;;;;;;;;;;;;;;14.45;83.81;101984.69;5038821;28;20346;-43
2022/09/01 05:39:19;;;;;;;;;;;;;;;14.50;84.17;101994.97;5037902;28;19909;-44
2022/09/01 05:41:46;;;;;;;;;;;;;;;14.50;85.52;101992.28;5030528;28;20352;-43
2022/09/01 05:44:12;;;;;;;;;;;;;;;14.46;84.58;101988.19;5018836;28;20366;-43
2022/09/01 05:46:38;;;;;;;;;;;;;;;14.47;85.13;102000.66;5019417;28;19913;-42
2022/09/01 05:49:05;;;;;;;;;;;;;;;14.46;84.89;101996.25;5018952;28;20002;-43
2022/09/01 05:51:33;;;;;;;;;;;;;;;14.44;86.93;102001.78;5018850;28;20265;-44
2022/09/01 05:53:58;;;;;;;;;;;;;;;14.43;85.48;102002.81;5016382;28;19913;-43
2022/09/01 05:56:25;;;;;;;;;;;;;;;14.43;84.85;102001.97;5018645;28;20223;-43
2022/09/01 05:58:51;;;;;;;;;;;;;;;14.46;84.06;101999.81;5018817;28;19909;-42
2022/09/01 06:01:20;;;;;;;;;;;;;;;14.47;84.31;102000.66;5016978;28;20665;-43
2022/09/01 06:03:46;;;;;;;;;;;;;;;14.47;85.04;101993.41;5034006;28;19952;-44
2022/09/01 06:06:11;;;;;;;;;;;;;;;14.49;86.37;101999.50;5037052;28;19955;-44
2022/09/01 06:08:36;;;;;;;;;;;;;;;14.48;86.72;101992.44;5030629;28;19923;-43
2022/09/01 06:11:11;;;;;;;;;;;;;;;14.50;86.00;102006.56;5036973;28;19908;-43
2022/09/01 06:13:37;;;;;;;;;;;;;;;14.55;85.63;102004.22;5038959;28;19918;-43
2022/09/01 06:16:02;;;;;;;;;;;;;;;14.55;85.56;102004.22;5023496;28;19921;-43
2022/09/01 06:18:27;;;;;;;;;;;;;;;14.58;84.72;102003.09;5031077;28;20184;-43
2022/09/01 06:20:53;;;;;;;;;;;;;;;14.61;83.79;102005.47;5030276;28;19967;-43
2022/09/01 06:23:19;;;;;;;;;;;;;;;14.66;84.54;102010.38;5017387;28;19960;-44
2022/09/01 06:25:45;;;;;;;;;;;;;;;14.67;85.72;102004.84;5019174;28;19909;-42
2022/09/01 06:28:14;;;;;;;;;;;;;;;14.68;85.37;102006.53;5018310;28;19913;-45
2022/09/01 06:30:41;;;;;;;;;;;;;;;14.73;84.65;102008.72;5022703;28;20278;-42
2022/09/01 06:33:08;;;;;;;;;;;;;;;14.79;85.55;102005.41;5018396;28;20348;-42
2022/09/01 06:35:34;;;;;;;;;;;;;;;14.85;85.04;102009.28;5018471;28;19932;-43
2022/09/01 06:38:00;;;;;;;;;;;;;;;14.92;85.82;102011.19;5020001;28;19995;-41
2022/09/01 06:40:26;;;;;;;;;;;;;;;15.01;84.52;102016.59;5031655;28;20477;-46
2022/09/01 06:42:51;;;;;;;;;;;;;;;15.11;84.63;102009.25;5023610;28;19917;-43
2022/09/01 06:45:19;;;;;;;;;;;;;;;15.21;87.19;102018.03;5017169;28;20139;-43
2022/09/01 06:47:49;;;;;;;;;;;;;;;15.33;85.32;102015.88;5020548;28;20631;-43
2022/09/01 06:50:17;;;;;;;;;;;;;;;15.46;84.41;102020.78;5025620;28;19943;-43
2022/09/01 06:52:42;;;;;;;;;;;;;;;15.56;84.96;102010.69;5035111;28;19921;-46
2022/09/01 06:55:09;;;;;;;;;;;;;;;15.71;85.99;102026.22;5020243;28;19916;-42
2022/09/01 06:57:36;;;;;;;;;;;;;;;15.84;84.50;102027.44;5018432;28;19929;-44
2022/09/01 07:00:06;;;;;;;;;;;;;;;15.98;83.88;102020.53;5022224;28;19912;-43
2022/09/01 07:02:32;;;;;;;;;;;;;;;16.14;82.36;102026.94;5021097;28;19920;-42
2022/09/01 07:04:58;;;;;;;;;;;;;;;16.27;82.13;102021.88;5028136;28;19971;-41
2022/09/01 07:07:24;;;;;;;;;;;;;;;16.43;82.48;102021.03;5033217;28;20086;-42
2022/09/01 07:09:49;;;;;;;;;;;;;;;16.60;82.15;102027.25;5032277;28;19940;-42
2022/09/01 07:12:18;;;;;;;;;;;;;;;16.78;81.56;102024.31;5031305;28;20334;-42
2022/09/01 07:14:43;;;;;;;;;;;;;;;16.91;80.30;102021.94;5035516;28;20352;-45
2022/09/01 07:17:10;;;;;;;;;;;;;;;17.04;79.91;102034.03;5025854;28;20011;-43
2022/09/01 07:19:36;;;;;;;;;;;;;;;17.19;78.60;102029.59;5024774;28;19913;-44
2022/09/01 07:22:03;;;;;;;;;;;;;;;17.33;78.19;102034.25;5035569;28;19913;-43
2022/09/01 07:24:28;;;;;;;;;;;;;;;17.47;77.74;102034.53;5037074;28;19990;-45
2022/09/01 07:26:53;;;;;;;;;;;;;;;17.61;77.87;102031.03;5036978;28;20367;-43
2022/09/01 07:29:21;;;;;;;;;;;;;;;17.75;77.40;102037.53;5034618;28;19912;-45
2022/09/01 07:31:46;;;;;;;;;;;;;;;17.88;76.78;102037.81;5028231;28;20381;-48
2022/09/01 07:34:13;;;;;;;;;;;;;;;18.02;76.03;102033.47;5027647;28;20004;-45
2022/09/01 07:36:39;;;;;;;;;;;;;;;18.17;75.63;102030.81;5018020;28;20700;-43
2022/09/01 07:39:04;;;;;;;;;;;;;;;18.31;75.51;102031.88;5019017;28;20450;-45
2022/09/01 07:41:31;;;;;;;;;;;;;;;18.44;74.44;102031.25;5017595;28;19913;-44
2022/09/01 07:43:57;;;;;;;;;;;;;;;18.58;74.41;102027.72;5017832;28;20393;-42
2022/09/01 07:46:24;;;;;;;;;;;;;;;18.72;72.71;102028.78;5022146;28;20065;-43
2022/09/01 07:48:52;;;;;;;;;;;;;;;18.83;72.99;102032.91;5019343;28;19986;-43
2022/09/01 07:51:18;;;;;;;;;;;;;;;18.97;71.99;102033.91;5016726;28;19909;-44
2022/09/01 07:53:44;;;;;;;;;;;;;;;19.11;72.04;102033.09;5018018;28;20019;-41
2022/09/01 07:56:10;;;;;;;;;;;;;;;19.24;72.47;102028.84;5025423;28;20323;-43
2022/09/01 07:58:37;;;;;;;;;;;;;;;19.37;72.33;102029.03;5023184;28;19948;-47
2022/09/01 08:01:06;;;;;;;;;;;;;;;19.49;71.24;102021.22;5027451;28;19916;-43
2022/09/01 08:03:31;;;;;;;;;;;;;;;19.59;71.32;102029.88;5024376;28;20100;-42
2022/09/01 08:06:04;;;;;;;;;;;;;;;19.73;71.08;102034.41;5030308;28;20410;-43
2022/09/01 08:08:30;;;;;;;;;;;;;;;19.88;70.92;102031.66;5032991;28;19960;-42
2022/09/01 08:10:55;;;;;;;;;;;;;;;20.00;70.48;102042.84;5032062;28;20197;-44
2022/09/01 08:13:20;;;;;;;;;;;;;;;20.17;69.63;102037.16;5034908;28;19908;-44
2022/09/01 08:15:45;;;;;;;;;;;;;;;20.29;68.69;102035.56;5019541;28;19913;-42
2022/09/01 08:18:11;;;;;;;;;;;;;;;20.41;69.10;102039.41;5016091;28;19963;-44
2022/09/01 08:20:38;;;;;;;;;;;;;;;20.56;67.69;102042.03;5016465;28;19983;-44
2022/09/01 08:23:04;;;;;;;;;;;;;;;20.73;68.05;102039.88;5015675;28;20043;-43
2022/09/01 08:25:30;;;;;;;;;;;;;;;20.86;66.68;102045.38;5016873;28;19984;-43
2022/09/01 08:27:55;;;;;;;;;;;;;;;21.01;65.82;102042.53;5016135;28;20379;-44
2022/09/01 08:30:22;;;;;;;;;;;;;;;21.14;66.58;102036.31;5013864;28;19909;-42
2022/09/01 08:32:48;;;;;;;;;;;;;;;21.27;66.71;102037.44;5015912;28;19909;-42
2022/09/01 08:35:15;;;;;;;;;;;;;;;21.31;66.48;102036.81;5026694;28;19948;-43
2022/09/01 08:37:41;;;;;;;;;;;;;;;21.35;63.82;102034.50;5023232;28;19996;-44
2022/09/01 08:40:07;;;;;;;;;;;;;;;21.43;63.35;102035.19;5020935;28;19909;-44
2022/09/01 08:42:41;;;;;;;;;;;;;;;21.53;61.31;102037.53;5021731;28;20231;-43
2022/09/01 08:45:10;;;;;;;;;;;;;;;21.60;60.91;102038.38;5015028;28;19974;-43
2022/09/01 08:47:35;;;;;;;;;;;;;;;;;;5015641;28;19920;-43
2022/09/01 08:50:01;;;;;;;;;;;;;;;21.71;59.46;102039.69;5015943;28;19909;-43
2022/09/01 08:52:31;;;;;;;;;;;;;;;21.78;58.58;102045.13;5013039;28;19909;-41
2022/09/01 08:54:56;;;;;;;;;;;;;;;21.85;61.29;102040.53;5015089;28;19975;-42
2022/09/01 08:57:31;;;;;;;;;;;;;;;21.92;60.12;102044.09;5015256;28;20000;-43
2022/09/01 08:59:56;;;;;;;;;;;;;;;22.08;60.35;102047.44;5014397;28;19923;-43
2022/09/01 09:02:24;;;;;;;;;;;;;;;22.24;59.66;102038.88;5017043;28;19996;-44
2022/09/01 09:04:58;;;;;;;;;;;;;;;22.39;57.89;102038.69;5035465;28;20382;-44
2022/09/01 09:07:46;;;;;;;;;;;;;;;22.55;58.25;102034.69;5035218;28;20026;-44
2022/09/01 09:10:17;;;;;;;;;;;;;;;22.64;59.58;102033.44;5040879;28;19920;-43
2022/09/01 09:12:55;;;;;;;;;;;;;;;22.81;56.49;102030.22;5039383;28;19900;-42
2022/09/01 09:15:42;;;;;;;;;;;;;;;22.90;57.72;102023.50;5038404;28;20004;-43
2022/09/01 09:18:15;;;;;;;;;;;;;;;22.99;57.92;102032.28;5025507;28;19918;-46
2022/09/01 09:20:41;;;;;;;;;;;;;;;23.13;57.56;102030.34;5038780;28;19915;-43
2022/09/01 09:23:11;;;;;;;;;;;;;;;23.25;58.68;102031.34;5039023;28;20314;-44
2022/09/01 09:25:36;;;;;;;;;;;;;;;23.43;54.76;102020.56;5024536;28;19916;-43
2022/09/01 09:28:01;;;;;;;;;;;;;;;23.56;53.82;102016.09;5027661;28;19909;-45
2022/09/01 09:30:28;;;;;;;;;;;;;;;23.61;52.35;102013.56;5018102;28;19978;-44
2022/09/01 09:33:03;;;;;;;;;;;;;;;23.68;52.21;102025.25;5019000;28;20434;-44
2022/09/01 09:35:30;;;;;;;;;;;;;;;23.76;52.68;102018.66;5017275;28;19920;-43
2022/09/01 09:38:21;;;;;;;;;;;;;;;23.86;50.45;102020.94;5017854;28;19997;-43
2022/09/01 09:41:05;;;;;;;;;;;;;;;23.92;50.00;102020.06;5019632;28;19909;-45
2022/09/01 09:43:32;;;;;;;;;;;;;;;23.95;50.68;102016.91;5019464;28;20254;-45
2022/09/01 09:46:16;;;;;;;;;;;;;;;24.01;49.76;102007.81;5018326;28;19909;-45
2022/09/01 09:48:41;;;;;;;;;;;;;;;24.15;48.95;102014.84;5019060;28;19916;-43
2022/09/01 09:51:18;;;;;;;;;;;;;;;24.25;48.95;102003.41;5018820;28;19916;-42
2022/09/01 09:53:43;;;;;;;;;;;;;;;24.40;52.14;101997.59;5018397;28;20423;-44
2022/09/01 09:56:21;;;;;;;;;;;;;;;24.64;48.39;101993.16;5018113;28;19996;-43
2022/09/01 09:58:47;;;;;;;;;;;;;;;24.77;50.19;101990.28;5018260;28;20476;-46
2022/09/01 10:01:27;;;;;;;;;;;;;;;24.83;43.72;101985.81;5018282;28;19913;-45
2022/09/01 10:03:54;;;;;;;;;;;;;;;24.91;46.11;101992.84;5035127;28;20011;-43
2022/09/01 10:06:33;;;;;;;;;;;;;;;24.94;43.86;101989.66;5037508;28;20383;-44
2022/09/01 10:09:00;;;;;;;;;;;;;;;25.00;44.11;101979.69;5038223;28;19916;-44
2022/09/01 10:11:28;;;;;;;;;;;;;;;25.01;42.18;101995.03;5037665;28;19935;-44
2022/09/01 10:13:53;;;;;;;;;;;;;;;25.06;42.61;101990.53;5039080;28;19908;-47
2022/09/01 10:16:27;;;;;;;;;;;;;;;25.18;45.21;101987.88;5035329;28;19917;-43
2022/09/01 10:18:58;;;;;;;;;;;;;;;25.36;40.31;101981.56;5028954;28;19913;-42
2022/09/01 10:21:27;;;;;;;;;;;;;;;25.44;41.65;101983.13;5021863;28;19913;-44
2022/09/01 10:23:52;;;;;;;;;;;;;;;25.47;42.50;101978.00;5025233;28;20284;-45
2022/09/01 10:26:22;;;;;;;;;;;;;;;25.53;42.87;101984.47;5034747;28;20150;-45
2022/09/01 10:28:50;;;;;;;;;;;;;;;25.62;41.15;101982.22;5022444;28;19998;-44
2022/09/01 10:31:15;;;;;;;;;;;;;;;25.72;39.24;101987.94;5017016;28;19941;-45
2022/09/01 10:33:41;;;;;;;;;;;;;;;25.70;37.25;101973.69;5017973;28;20018;-43
2022/09/01 10:36:07;;;;;;;;;;;;;;;25.69;37.05;101982.94;5016207;28;19913;-47
2022/09/01 10:38:32;;;;;;;;;;;;;;;25.75;37.65;101981.19;5021512;28;20391;-44
2022/09/01 10:41:08;;;;;;;;;;;;;;;25.84;38.45;101974.28;5017700;28;19935;-45
2022/09/01 10:43:35;;;;;;;;;;;;;;;25.96;36.99;101966.94;5018909;28;19931;-43
2022/09/01 10:46:26;;;;;;;;;;;;;;;25.99;38.02;101974.69;5018117;28;19935;-44
2022/09/01 10:48:52;;;;;;;;;;;;;;;26.08;37.40;101977.09;5020139;28;19913;-43
2022/09/01 10:51:17;;;;;;;;;;;;;;;26.00;36.91;101970.91;5015637;28;19949;-43
2022/09/01 10:53:47;;;;;;;;;;;;;;;25.92;37.93;101968.47;5021266;28;19909;-46
2022/09/01 10:56:15;;;;;;;;;;;;;;;26.03;36.22;101973.13;5017314;28;20267;-44
2022/09/01 10:58:58;;;;;;;;;;;;;;;26.14;37.04;101956.97;5021723;28;19908;-43
2022/09/01 11:01:38;;;;;;;;;;;;;;;26.24;38.16;101965.41;5016623;28;20351;-43
2022/09/01 11:04:04;;;;;;;;;;;;;;;26.47;37.19;101960.97;5034847;28;20306;-43
2022/09/01 11:06:45;;;;;;;;;;;;;;;26.58;34.85;101962.88;5033983;28;19931;-44
2022/09/01 11:09:24;;;;;;;;;;;;;;;26.66;34.29;101968.00;5034855;28;19909;-44
2022/09/01 11:11:55;;;;;;;;;;;;;;;26.69;35.84;101961.22;5033835;28;19916;-42
2022/09/01 11:14:22;;;;;;;;;;;;;;;26.77;34.77;101967.13;5035465;28;20454;-43
2022/09/01 11:17:06;;;;;;;;;;;;;;;26.83;35.17;101965.31;5036267;28;20010;-43
2022/09/01 11:19:37;;;;;;;;;;;;;;;26.82;32.46;101958.19;5027844;28;19913;-44
2022/09/01 11:22:23;;;;;;;;;;;;;;;26.65;34.22;101960.00;5029776;28;20029;-44
2022/09/01 11:25:05;;;;;;;;;;;;;;;26.67;32.27;101966.09;5027988;28;19916;-44
2022/09/01 11:27:45;;;;;;;;;;;;;;;26.72;33.79;101952.50;5017881;28;19916;-48
2022/09/01 11:30:15;;;;;;;;;;;;;;;26.82;31.62;101946.38;5016582;28;19908;-47
2022/09/01 11:32:40;;;;;;;;;;;;;;;26.90;33.20;101943.25;5030024;28;19944;-46
2022/09/01 11:35:13;;;;;;;;;;;;;;;26.98;33.93;101943.69;5025750;28;19952;-43
2022/09/01 11:37:38;;;;;;;;;;;;;;;27.14;31.04;101949.50;5027718;28;20334;-44
2022/09/01 11:40:07;;;;;;;;;;;;;;;27.21;31.26;101943.81;5017206;28;19913;-45
2022/09/01 11:42:38;;;;;;;;;;;;;;;27.21;32.61;101941.94;5024092;28;19963;-43
2022/09/01 11:45:17;;;;;;;;;;;;;;;27.26;33.45;101928.31;5017901;28;20384;-45
2022/09/01 11:47:44;;;;;;;;;;;;;;;27.28;30.47;101934.41;5030837;28;19924;-45
2022/09/01 11:50:15;;;;;;;;;;;;;;;27.27;29.78;101929.13;5017828;28;20371;-45
2022/09/01 11:52:41;;;;;;;;;;;;;;;27.29;31.80;101927.00;5017522;28;19959;-44
2022/09/01 11:55:07;;;;;;;;;;;;;;;27.42;29.87;101926.69;5018039;28;19936;-45
2022/09/01 11:57:34;;;;;;;;;;;;;;;27.57;30.41;101922.56;5020741;28;19913;-45
2022/09/01 12:00:00;;;;;;;;;;;;;;;27.67;32.48;101926.28;5014183;28;19913;-43
2022/09/01 12:02:41;;;;;;;;;;;;;;;27.81;30.69;101924.03;5019946;28;20118;-44
2022/09/01 12:05:23;;;;;;;;;;;;;;;27.87;32.36;101920.28;5037185;28;19933;-43
2022/09/01 12:07:48;;;;;;;;;;;;;;;27.96;30.09;101920.72;5032592;28;20311;-43
2022/09/01 12:10:20;;;;;;;;;;;;;;;27.94;30.70;101913.81;5036734;28;19913;-48
2022/09/01 12:12:45;;;;;;;;;;;;;;;27.99;30.54;101922.13;5036516;28;19946;-46
2022/09/01 12:15:20;;;;;;;;;;;;;;;28.02;31.23;101911.50;5035801;28;20279;-44
2022/09/01 12:17:45;;;;;;;;;;;;;;;28.14;29.54;101908.63;5036927;28;19908;-47
2022/09/01 12:20:27;;;;;;;;;;;;;;;28.04;28.38;101911.25;5035986;28;19932;-44
2022/09/01 12:22:54;;;;;;;;;;;;;;;27.98;29.60;101914.97;5034833;28;19916;-45
2022/09/01 12:25:21;;;;;;;;;;;;;;;28.06;28.03;101911.81;5036683;28;19931;-43
2022/09/01 12:27:46;;;;;;;;;;;;;;;27.88;28.54;101899.16;5036633;28;20170;-44
2022/09/01 12:30:12;;;;;;;;;;;;;;;28.01;31.03;101909.00;5036282;28;19931;-42
2022/09/01 12:32:37;;;;;;;;;;;;;;;28.23;28.10;101918.09;5035567;28;20165;-43
2022/09/01 12:35:12;;;;;;;;;;;;;;;28.37;26.69;101913.03;5037023;28;19970;-43
2022/09/01 12:37:37;;;;;;;;;;;;;;;28.57;27.71;101907.00;5035455;28;19913;-45
2022/09/01 12:40:03;;;;;;;;;;;;;;;29.12;25.25;101898.78;5036165;28;20235;-43
2022/09/01 12:42:30;;;;;;;;;;;;;;;29.66;25.64;101906.97;5035935;28;19915;-46
2022/09/01 12:45:03;;;;;;;;;;;;;;;30.13;26.56;101903.44;5035487;28;20058;-46